sensor_id;sensor_type;location;lat;lon;timestamp;temperature;humidity
16728;DHT22;8482;54.396;18.590;2023-04-19T00:00:50;8.60;99.90
16728;DHT22;8482;54.396;18.590;2023-04-19T00:03:17;8.60;99.90
16728;DHT22;8482;54.396;18.590;2023-04-19T00:05:42;8.60;99.90
16728;DHT22;8482;54.396;18.590;2023-04-19T00:08:08;8.60;99.90
16728;DHT22;8482;54.396;18.590;2023-04-19T00:10:34;8.60;99.90
16728;DHT22;8482;54.396;18.590;2023-04-19T00:13:01;8.60;99.90
16728;DHT22;8482;54.396;18.590;2023-04-19T00:15:27;8.60;99.90
16728;DHT22;8482;54.396;18.590;2023-04-19T00:17:53;8.60;99.90
16728;DHT22;8482;54.396;18.590;2023-04-19T00:20:20;8.60;99.90
16728;DHT22;8482;54.396;18.590;2023-04-19T00:22:46;8.60;99.90
16728;DHT22;8482;54.396;18.590;2023-04-19T00:25:12;8.70;99.90
16728;DHT22;8482;54.396;18.590;2023-04-19T00:27:38;8.70;99.90
16728;DHT22;8482;54.396;18.590;2023-04-19T00:30:05;8.70;99.90
16728;DHT22;8482;54.396;18.590;2023-04-19T00:32:31;8.70;99.90
16728;DHT22;8482;54.396;18.590;2023-04-19T00:34:56;8.80;99.90
16728;DHT22;8482;54.396;18.590;2023-04-19T00:37:22;8.80;99.90
16728;DHT22;8482;54.396;18.590;2023-04-19T00:39:48;8.80;99.90
16728;DHT22;8482;54.396;18.590;2023-04-19T00:42:14;8.80;99.90
16728;DHT22;8482;54.396;18.590;2023-04-19T00:44:40;8.70;99.90
16728;DHT22;8482;54.396;18.590;2023-04-19T00:47:06;8.80;99.90
16728;DHT22;8482;54.396;18.590;2023-04-19T00:49:32;8.80;99.90
16728;DHT22;8482;54.396;18.590;2023-04-19T00:51:58;8.70;99.90
16728;DHT22;8482;54.396;18.590;2023-04-19T00:54:24;8.80;99.90
16728;DHT22;8482;54.396;18.590;2023-04-19T00:56:50;8.80;99.90
16728;DHT22;8482;54.396;18.590;2023-04-19T00:59:17;8.80;99.90
16728;DHT22;8482;54.396;18.590;2023-04-19T01:01:43;8.80;99.90
16728;DHT22;8482;54.396;18.590;2023-04-19T01:04:09;8.80;99.90
16728;DHT22;8482;54.396;18.590;2023-04-19T01:06:36;8.80;99.90
16728;DHT22;8482;54.396;18.590;2023-04-19T01:09:04;8.80;99.90
16728;DHT22;8482;54.396;18.590;2023-04-19T01:11:30;8.70;99.90
16728;DHT22;8482;54.396;18.590;2023-04-19T01:13:56;8.70;99.90
16728;DHT22;8482;54.396;18.590;2023-04-19T01:16:26;8.70;99.90
16728;DHT22;8482;54.396;18.590;2023-04-19T01:18:53;8.70;99.90
16728;DHT22;8482;54.396;18.590;2023-04-19T01:21:19;8.70;99.90
16728;DHT22;8482;54.396;18.590;2023-04-19T01:23:46;8.70;99.90
16728;DHT22;8482;54.396;18.590;2023-04-19T01:26:12;8.70;99.90
16728;DHT22;8482;54.396;18.590;2023-04-19T01:28:38;8.60;99.90
16728;DHT22;8482;54.396;18.590;2023-04-19T01:31:04;8.60;99.90
16728;DHT22;8482;54.396;18.590;2023-04-19T01:33:30;8.60;99.90
16728;DHT22;8482;54.396;18.590;2023-04-19T01:35:55;8.60;99.90
16728;DHT22;8482;54.396;18.590;2023-04-19T01:38:21;8.60;99.90
16728;DHT22;8482;54.396;18.590;2023-04-19T01:40:47;8.60;99.90
16728;DHT22;8482;54.396;18.590;2023-04-19T01:43:15;8.60;99.90
16728;DHT22;8482;54.396;18.590;2023-04-19T01:45:42;8.50;99.90
16728;DHT22;8482;54.396;18.590;2023-04-19T01:48:08;8.50;99.90
16728;DHT22;8482;54.396;18.590;2023-04-19T01:50:34;8.50;99.90
16728;DHT22;8482;54.396;18.590;2023-04-19T01:53:00;8.50;99.90
16728;DHT22;8482;54.396;18.590;2023-04-19T01:55:26;8.40;99.90
16728;DHT22;8482;54.396;18.590;2023-04-19T01:57:52;8.40;99.90
16728;DHT22;8482;54.396;18.590;2023-04-19T02:00:19;8.40;99.90
16728;DHT22;8482;54.396;18.590;2023-04-19T02:02:45;8.30;99.90
16728;DHT22;8482;54.396;18.590;2023-04-19T02:05:11;8.40;99.90
16728;DHT22;8482;54.396;18.590;2023-04-19T02:07:37;8.30;99.90
16728;DHT22;8482;54.396;18.590;2023-04-19T02:10:04;8.30;99.90
16728;DHT22;8482;54.396;18.590;2023-04-19T02:12:32;8.30;99.90
16728;DHT22;8482;54.396;18.590;2023-04-19T02:14:59;8.30;99.90
16728;DHT22;8482;54.396;18.590;2023-04-19T02:17:29;8.30;99.90
16728;DHT22;8482;54.396;18.590;2023-04-19T02:19:55;8.30;99.90
16728;DHT22;8482;54.396;18.590;2023-04-19T02:22:21;8.30;99.90
16728;DHT22;8482;54.396;18.590;2023-04-19T02:24:49;8.30;99.90
16728;DHT22;8482;54.396;18.590;2023-04-19T02:27:16;8.30;99.90
16728;DHT22;8482;54.396;18.590;2023-04-19T02:29:42;8.30;99.90
16728;DHT22;8482;54.396;18.590;2023-04-19T02:32:10;8.30;99.90
16728;DHT22;8482;54.396;18.590;2023-04-19T02:34:37;8.20;99.90
16728;DHT22;8482;54.396;18.590;2023-04-19T02:37:03;8.20;99.90
16728;DHT22;8482;54.396;18.590;2023-04-19T02:39:29;8.20;99.90
16728;DHT22;8482;54.396;18.590;2023-04-19T02:41:54;8.20;99.90
16728;DHT22;8482;54.396;18.590;2023-04-19T02:44:21;8.20;99.90
16728;DHT22;8482;54.396;18.590;2023-04-19T02:46:53;8.20;99.90
16728;DHT22;8482;54.396;18.590;2023-04-19T02:49:19;8.20;99.90
16728;DHT22;8482;54.396;18.590;2023-04-19T02:51:46;8.20;99.90
16728;DHT22;8482;54.396;18.590;2023-04-19T02:54:12;8.20;99.90
16728;DHT22;8482;54.396;18.590;2023-04-19T02:56:38;8.20;99.90
16728;DHT22;8482;54.396;18.590;2023-04-19T02:59:04;8.10;99.90
16728;DHT22;8482;54.396;18.590;2023-04-19T03:01:31;8.10;99.90
16728;DHT22;8482;54.396;18.590;2023-04-19T03:03:57;8.10;99.90
16728;DHT22;8482;54.396;18.590;2023-04-19T03:06:23;8.10;99.90
16728;DHT22;8482;54.396;18.590;2023-04-19T03:08:50;8.00;99.90
16728;DHT22;8482;54.396;18.590;2023-04-19T03:11:17;8.00;99.90
16728;DHT22;8482;54.396;18.590;2023-04-19T03:13:43;8.00;99.90
16728;DHT22;8482;54.396;18.590;2023-04-19T03:16:09;7.90;99.90
16728;DHT22;8482;54.396;18.590;2023-04-19T03:18:35;7.90;99.90
16728;DHT22;8482;54.396;18.590;2023-04-19T03:21:02;7.90;99.90
16728;DHT22;8482;54.396;18.590;2023-04-19T03:23:28;7.90;99.90
16728;DHT22;8482;54.396;18.590;2023-04-19T03:25:54;7.90;99.90
16728;DHT22;8482;54.396;18.590;2023-04-19T03:28:21;7.90;99.90
16728;DHT22;8482;54.396;18.590;2023-04-19T03:30:47;7.90;99.90
16728;DHT22;8482;54.396;18.590;2023-04-19T03:33:13;7.90;99.90
16728;DHT22;8482;54.396;18.590;2023-04-19T03:35:39;8.00;99.90
16728;DHT22;8482;54.396;18.590;2023-04-19T03:38:05;8.00;99.90
16728;DHT22;8482;54.396;18.590;2023-04-19T03:40:36;8.00;99.90
16728;DHT22;8482;54.396;18.590;2023-04-19T03:43:03;8.00;99.90
16728;DHT22;8482;54.396;18.590;2023-04-19T03:45:29;8.00;99.90
16728;DHT22;8482;54.396;18.590;2023-04-19T03:47:55;8.00;99.90
16728;DHT22;8482;54.396;18.590;2023-04-19T03:50:21;8.10;99.90
16728;DHT22;8482;54.396;18.590;2023-04-19T03:52:47;8.10;99.90
16728;DHT22;8482;54.396;18.590;2023-04-19T03:55:12;8.10;99.90
16728;DHT22;8482;54.396;18.590;2023-04-19T03:57:39;8.10;99.90
16728;DHT22;8482;54.396;18.590;2023-04-19T04:00:05;8.10;99.90
16728;DHT22;8482;54.396;18.590;2023-04-19T04:02:32;8.10;99.90
16728;DHT22;8482;54.396;18.590;2023-04-19T04:04:58;8.20;99.90
16728;DHT22;8482;54.396;18.590;2023-04-19T04:07:24;8.20;99.90
16728;DHT22;8482;54.396;18.590;2023-04-19T04:09:50;8.30;99.90
16728;DHT22;8482;54.396;18.590;2023-04-19T04:12:16;8.30;99.90
16728;DHT22;8482;54.396;18.590;2023-04-19T04:14:42;8.40;99.90
16728;DHT22;8482;54.396;18.590;2023-04-19T04:17:07;8.40;99.90
16728;DHT22;8482;54.396;18.590;2023-04-19T04:19:33;8.50;99.90
16728;DHT22;8482;54.396;18.590;2023-04-19T04:21:59;8.50;99.90
16728;DHT22;8482;54.396;18.590;2023-04-19T04:24:25;8.50;99.90
16728;DHT22;8482;54.396;18.590;2023-04-19T04:26:52;8.50;99.90
16728;DHT22;8482;54.396;18.590;2023-04-19T04:29:18;8.60;99.90
16728;DHT22;8482;54.396;18.590;2023-04-19T04:31:43;8.60;99.90
16728;DHT22;8482;54.396;18.590;2023-04-19T04:34:09;8.60;99.90
16728;DHT22;8482;54.396;18.590;2023-04-19T04:36:35;8.70;99.90
16728;DHT22;8482;54.396;18.590;2023-04-19T04:39:02;8.70;99.90
16728;DHT22;8482;54.396;18.590;2023-04-19T04:41:30;8.70;99.90
16728;DHT22;8482;54.396;18.590;2023-04-19T04:43:59;8.70;99.90
16728;DHT22;8482;54.396;18.590;2023-04-19T04:46:29;8.70;99.90
16728;DHT22;8482;54.396;18.590;2023-04-19T04:48:54;8.80;99.90
16728;DHT22;8482;54.396;18.590;2023-04-19T04:51:20;8.80;99.90
16728;DHT22;8482;54.396;18.590;2023-04-19T04:53:46;8.80;99.90
16728;DHT22;8482;54.396;18.590;2023-04-19T04:56:12;8.80;99.90
16728;DHT22;8482;54.396;18.590;2023-04-19T04:58:37;8.80;99.90
16728;DHT22;8482;54.396;18.590;2023-04-19T05:01:03;8.80;99.90
16728;DHT22;8482;54.396;18.590;2023-04-19T05:03:29;8.90;99.90
16728;DHT22;8482;54.396;18.590;2023-04-19T05:05:55;8.90;99.90
16728;DHT22;8482;54.396;18.590;2023-04-19T05:08:21;8.90;99.90
16728;DHT22;8482;54.396;18.590;2023-04-19T05:10:47;8.90;99.90
16728;DHT22;8482;54.396;18.590;2023-04-19T05:13:13;8.90;99.90
16728;DHT22;8482;54.396;18.590;2023-04-19T05:15:38;8.90;99.90
16728;DHT22;8482;54.396;18.590;2023-04-19T05:18:05;8.90;99.90
16728;DHT22;8482;54.396;18.590;2023-04-19T05:20:31;8.90;99.90
16728;DHT22;8482;54.396;18.590;2023-04-19T05:22:59;8.90;99.90
16728;DHT22;8482;54.396;18.590;2023-04-19T05:25:26;8.90;99.90
16728;DHT22;8482;54.396;18.590;2023-04-19T05:27:52;8.90;99.90
16728;DHT22;8482;54.396;18.590;2023-04-19T05:30:18;8.90;99.90
16728;DHT22;8482;54.396;18.590;2023-04-19T05:32:44;8.90;99.90
16728;DHT22;8482;54.396;18.590;2023-04-19T05:35:10;8.90;99.90
16728;DHT22;8482;54.396;18.590;2023-04-19T05:37:37;9.00;99.90
16728;DHT22;8482;54.396;18.590;2023-04-19T05:40:05;9.00;99.90
16728;DHT22;8482;54.396;18.590;2023-04-19T05:42:34;9.00;99.90
16728;DHT22;8482;54.396;18.590;2023-04-19T05:45:00;9.00;99.90
16728;DHT22;8482;54.396;18.590;2023-04-19T05:47:26;9.00;99.90
16728;DHT22;8482;54.396;18.590;2023-04-19T05:49:52;9.00;99.90
16728;DHT22;8482;54.396;18.590;2023-04-19T05:52:18;9.10;99.90
16728;DHT22;8482;54.396;18.590;2023-04-19T05:54:43;9.10;99.90
16728;DHT22;8482;54.396;18.590;2023-04-19T05:57:09;9.10;99.90
16728;DHT22;8482;54.396;18.590;2023-04-19T05:59:35;9.10;99.90
16728;DHT22;8482;54.396;18.590;2023-04-19T06:02:01;9.10;99.90
16728;DHT22;8482;54.396;18.590;2023-04-19T06:04:27;9.10;99.90
16728;DHT22;8482;54.396;18.590;2023-04-19T06:06:53;9.10;99.90
16728;DHT22;8482;54.396;18.590;2023-04-19T06:09:19;9.20;99.90
16728;DHT22;8482;54.396;18.590;2023-04-19T06:11:45;9.20;99.90
16728;DHT22;8482;54.396;18.590;2023-04-19T06:14:11;9.20;99.90
16728;DHT22;8482;54.396;18.590;2023-04-19T06:16:40;9.20;99.90
16728;DHT22;8482;54.396;18.590;2023-04-19T06:19:06;9.30;99.90
16728;DHT22;8482;54.396;18.590;2023-04-19T06:21:33;9.30;99.90
16728;DHT22;8482;54.396;18.590;2023-04-19T06:23:59;9.30;99.90
16728;DHT22;8482;54.396;18.590;2023-04-19T06:26:25;9.30;99.90
16728;DHT22;8482;54.396;18.590;2023-04-19T06:28:51;9.30;99.90
16728;DHT22;8482;54.396;18.590;2023-04-19T06:31:17;9.30;99.90
16728;DHT22;8482;54.396;18.590;2023-04-19T06:33:43;9.30;99.90
16728;DHT22;8482;54.396;18.590;2023-04-19T06:36:09;9.30;99.90
16728;DHT22;8482;54.396;18.590;2023-04-19T06:38:35;9.30;99.90
16728;DHT22;8482;54.396;18.590;2023-04-19T06:41:03;9.40;99.90
16728;DHT22;8482;54.396;18.590;2023-04-19T06:43:29;9.40;99.90
16728;DHT22;8482;54.396;18.590;2023-04-19T06:46:02;9.40;99.90
16728;DHT22;8482;54.396;18.590;2023-04-19T06:48:33;9.40;99.90
16728;DHT22;8482;54.396;18.590;2023-04-19T06:50:59;9.40;99.90
16728;DHT22;8482;54.396;18.590;2023-04-19T06:53:25;9.40;99.90
16728;DHT22;8482;54.396;18.590;2023-04-19T06:56:01;9.40;99.90
16728;DHT22;8482;54.396;18.590;2023-04-19T06:58:29;9.40;99.90
16728;DHT22;8482;54.396;18.590;2023-04-19T07:00:56;9.40;99.90
16728;DHT22;8482;54.396;18.590;2023-04-19T07:03:22;9.40;99.90
16728;DHT22;8482;54.396;18.590;2023-04-19T07:05:48;9.40;99.90
16728;DHT22;8482;54.396;18.590;2023-04-19T07:08:15;9.40;99.90
16728;DHT22;8482;54.396;18.590;2023-04-19T07:10:40;9.40;99.90
16728;DHT22;8482;54.396;18.590;2023-04-19T07:13:10;9.50;99.90
16728;DHT22;8482;54.396;18.590;2023-04-19T07:15:36;9.60;99.90
16728;DHT22;8482;54.396;18.590;2023-04-19T07:18:02;9.60;99.90
16728;DHT22;8482;54.396;18.590;2023-04-19T07:20:28;9.60;99.90
16728;DHT22;8482;54.396;18.590;2023-04-19T07:22:59;9.60;99.90
16728;DHT22;8482;54.396;18.590;2023-04-19T07:25:25;9.70;99.90
16728;DHT22;8482;54.396;18.590;2023-04-19T07:27:54;9.70;99.90
16728;DHT22;8482;54.396;18.590;2023-04-19T07:30:21;9.80;99.90
16728;DHT22;8482;54.396;18.590;2023-04-19T07:32:46;9.90;99.90
16728;DHT22;8482;54.396;18.590;2023-04-19T07:35:12;9.90;99.90
16728;DHT22;8482;54.396;18.590;2023-04-19T07:37:38;10.00;99.90
16728;DHT22;8482;54.396;18.590;2023-04-19T07:40:05;10.10;99.90
16728;DHT22;8482;54.396;18.590;2023-04-19T07:42:31;10.20;99.90
16728;DHT22;8482;54.396;18.590;2023-04-19T07:44:57;10.20;99.90
16728;DHT22;8482;54.396;18.590;2023-04-19T07:47:24;10.30;99.90
16728;DHT22;8482;54.396;18.590;2023-04-19T07:49:54;10.30;99.90
16728;DHT22;8482;54.396;18.590;2023-04-19T07:52:20;10.20;99.90
16728;DHT22;8482;54.396;18.590;2023-04-19T07:54:46;10.20;99.90
16728;DHT22;8482;54.396;18.590;2023-04-19T07:57:12;10.20;99.90
16728;DHT22;8482;54.396;18.590;2023-04-19T07:59:37;10.10;99.90
16728;DHT22;8482;54.396;18.590;2023-04-19T08:02:03;10.10;99.90
16728;DHT22;8482;54.396;18.590;2023-04-19T08:04:29;10.10;99.90
16728;DHT22;8482;54.396;18.590;2023-04-19T08:06:55;10.10;99.90
16728;DHT22;8482;54.396;18.590;2023-04-19T08:09:21;10.20;99.90
16728;DHT22;8482;54.396;18.590;2023-04-19T08:11:47;10.20;99.90
16728;DHT22;8482;54.396;18.590;2023-04-19T08:14:12;10.20;99.90
16728;DHT22;8482;54.396;18.590;2023-04-19T08:16:39;10.20;99.90
16728;DHT22;8482;54.396;18.590;2023-04-19T08:19:05;10.20;99.90
16728;DHT22;8482;54.396;18.590;2023-04-19T08:21:31;10.10;99.90
16728;DHT22;8482;54.396;18.590;2023-04-19T08:23:57;10.10;99.90
16728;DHT22;8482;54.396;18.590;2023-04-19T08:26:22;10.10;99.90
16728;DHT22;8482;54.396;18.590;2023-04-19T08:28:48;10.00;99.90
16728;DHT22;8482;54.396;18.590;2023-04-19T08:31:16;10.00;99.90
16728;DHT22;8482;54.396;18.590;2023-04-19T08:33:44;9.90;99.90
16728;DHT22;8482;54.396;18.590;2023-04-19T08:36:10;9.90;99.90
16728;DHT22;8482;54.396;18.590;2023-04-19T08:38:36;9.90;99.90
16728;DHT22;8482;54.396;18.590;2023-04-19T08:41:03;9.80;99.90
16728;DHT22;8482;54.396;18.590;2023-04-19T08:43:29;9.80;99.90
16728;DHT22;8482;54.396;18.590;2023-04-19T08:46:00;9.70;99.90
16728;DHT22;8482;54.396;18.590;2023-04-19T08:48:28;9.70;99.90
16728;DHT22;8482;54.396;18.590;2023-04-19T08:50:56;9.60;99.90
16728;DHT22;8482;54.396;18.590;2023-04-19T08:53:27;9.60;99.90
16728;DHT22;8482;54.396;18.590;2023-04-19T08:55:54;9.60;99.90
16728;DHT22;8482;54.396;18.590;2023-04-19T08:58:26;9.60;99.90
16728;DHT22;8482;54.396;18.590;2023-04-19T09:00:56;9.50;99.90
16728;DHT22;8482;54.396;18.590;2023-04-19T09:03:23;9.50;99.90
16728;DHT22;8482;54.396;18.590;2023-04-19T09:05:49;9.50;99.90
16728;DHT22;8482;54.396;18.590;2023-04-19T09:08:27;9.50;99.90
16728;DHT22;8482;54.396;18.590;2023-04-19T09:10:59;9.50;99.90
16728;DHT22;8482;54.396;18.590;2023-04-19T09:13:27;9.50;99.90
16728;DHT22;8482;54.396;18.590;2023-04-19T09:15:54;9.50;99.90
16728;DHT22;8482;54.396;18.590;2023-04-19T09:18:27;9.50;99.90
16728;DHT22;8482;54.396;18.590;2023-04-19T09:20:53;9.50;99.90
16728;DHT22;8482;54.396;18.590;2023-04-19T09:23:24;9.50;99.90
16728;DHT22;8482;54.396;18.590;2023-04-19T09:25:51;9.50;99.90
16728;DHT22;8482;54.396;18.590;2023-04-19T09:28:19;9.40;99.90
16728;DHT22;8482;54.396;18.590;2023-04-19T09:30:45;9.40;99.90
16728;DHT22;8482;54.396;18.590;2023-04-19T09:33:12;9.30;99.90
16728;DHT22;8482;54.396;18.590;2023-04-19T09:35:46;9.30;99.90
16728;DHT22;8482;54.396;18.590;2023-04-19T09:38:14;9.20;99.90
16728;DHT22;8482;54.396;18.590;2023-04-19T09:40:42;9.20;99.90
16728;DHT22;8482;54.396;18.590;2023-04-19T09:43:08;9.10;99.90
16728;DHT22;8482;54.396;18.590;2023-04-19T09:45:42;9.10;99.90
16728;DHT22;8482;54.396;18.590;2023-04-19T09:48:11;9.00;99.90
16728;DHT22;8482;54.396;18.590;2023-04-19T09:50:58;9.00;99.90
16728;DHT22;8482;54.396;18.590;2023-04-19T09:53:26;9.00;99.90
16728;DHT22;8482;54.396;18.590;2023-04-19T09:55:54;8.90;99.90
16728;DHT22;8482;54.396;18.590;2023-04-19T09:58:21;8.90;99.90
16728;DHT22;8482;54.396;18.590;2023-04-19T10:00:47;8.80;99.90
16728;DHT22;8482;54.396;18.590;2023-04-19T10:03:15;8.80;99.90
16728;DHT22;8482;54.396;18.590;2023-04-19T10:05:43;8.70;99.90
16728;DHT22;8482;54.396;18.590;2023-04-19T10:08:11;8.70;99.90
16728;DHT22;8482;54.396;18.590;2023-04-19T10:10:41;8.70;99.90
16728;DHT22;8482;54.396;18.590;2023-04-19T10:13:12;8.70;99.90
16728;DHT22;8482;54.396;18.590;2023-04-19T10:15:43;8.70;99.90
16728;DHT22;8482;54.396;18.590;2023-04-19T10:18:10;8.60;99.90
16728;DHT22;8482;54.396;18.590;2023-04-19T10:20:58;8.60;99.90
16728;DHT22;8482;54.396;18.590;2023-04-19T10:23:29;8.60;99.90
16728;DHT22;8482;54.396;18.590;2023-04-19T10:25:57;8.60;99.90
16728;DHT22;8482;54.396;18.590;2023-04-19T10:28:24;8.50;99.90
16728;DHT22;8482;54.396;18.590;2023-04-19T10:30:58;8.50;99.90
16728;DHT22;8482;54.396;18.590;2023-04-19T10:33:30;8.50;99.90
16728;DHT22;8482;54.396;18.590;2023-04-19T10:36:01;8.40;99.90
16728;DHT22;8482;54.396;18.590;2023-04-19T10:38:40;8.40;99.90
16728;DHT22;8482;54.396;18.590;2023-04-19T10:41:15;8.30;99.90
16728;DHT22;8482;54.396;18.590;2023-04-19T10:44:08;8.30;99.90
16728;DHT22;8482;54.396;18.590;2023-04-19T10:46:37;8.30;99.90
16728;DHT22;8482;54.396;18.590;2023-04-19T10:49:07;8.30;99.90
16728;DHT22;8482;54.396;18.590;2023-04-19T10:51:48;8.30;99.90
16728;DHT22;8482;54.396;18.590;2023-04-19T10:54:33;8.30;99.90
16728;DHT22;8482;54.396;18.590;2023-04-19T10:57:01;8.30;99.90
16728;DHT22;8482;54.396;18.590;2023-04-19T10:59:39;8.30;99.90
16728;DHT22;8482;54.396;18.590;2023-04-19T11:07:18;8.30;99.90
16728;DHT22;8482;54.396;18.590;2023-04-19T11:09:47;8.30;99.90
16728;DHT22;8482;54.396;18.590;2023-04-19T11:12:15;8.30;99.90
16728;DHT22;8482;54.396;18.590;2023-04-19T11:14:44;8.30;99.90
16728;DHT22;8482;54.396;18.590;2023-04-19T11:17:23;8.40;99.90
16728;DHT22;8482;54.396;18.590;2023-04-19T11:20:04;8.40;99.90
16728;DHT22;8482;54.396;18.590;2023-04-19T11:22:45;8.40;99.90
16728;DHT22;8482;54.396;18.590;2023-04-19T11:25:15;8.50;99.90
16728;DHT22;8482;54.396;18.590;2023-04-19T11:27:50;8.50;99.90
16728;DHT22;8482;54.396;18.590;2023-04-19T11:30:19;8.50;99.90
16728;DHT22;8482;54.396;18.590;2023-04-19T11:32:48;8.60;99.90
16728;DHT22;8482;54.396;18.590;2023-04-19T11:35:27;8.60;99.90
16728;DHT22;8482;54.396;18.590;2023-04-19T11:37:57;8.70;99.90
16728;DHT22;8482;54.396;18.590;2023-04-19T11:40:24;8.70;99.90
16728;DHT22;8482;54.396;18.590;2023-04-19T11:42:55;8.70;99.90
16728;DHT22;8482;54.396;18.590;2023-04-19T11:45:26;8.70;99.90
16728;DHT22;8482;54.396;18.590;2023-04-19T11:47:57;8.80;99.90
16728;DHT22;8482;54.396;18.590;2023-04-19T11:50:36;8.90;99.90
16728;DHT22;8482;54.396;18.590;2023-04-19T11:53:17;8.90;99.90
16728;DHT22;8482;54.396;18.590;2023-04-19T11:55:47;9.00;99.90
16728;DHT22;8482;54.396;18.590;2023-04-19T12:00:54;9.10;99.90
16728;DHT22;8482;54.396;18.590;2023-04-19T12:03:23;9.10;99.90
16728;DHT22;8482;54.396;18.590;2023-04-19T12:05:57;9.10;99.90
16728;DHT22;8482;54.396;18.590;2023-04-19T12:08:40;9.20;99.90
16728;DHT22;8482;54.396;18.590;2023-04-19T12:11:08;9.20;99.90
16728;DHT22;8482;54.396;18.590;2023-04-19T12:13:34;9.30;99.90
16728;DHT22;8482;54.396;18.590;2023-04-19T12:16:01;9.40;99.90
16728;DHT22;8482;54.396;18.590;2023-04-19T12:18:40;9.50;99.90
16728;DHT22;8482;54.396;18.590;2023-04-19T12:21:22;9.50;99.90
16728;DHT22;8482;54.396;18.590;2023-04-19T12:23:52;9.60;99.90
16728;DHT22;8482;54.396;18.590;2023-04-19T12:26:18;9.70;99.90
16728;DHT22;8482;54.396;18.590;2023-04-19T12:28:44;9.70;99.90
16728;DHT22;8482;54.396;18.590;2023-04-19T12:31:10;9.80;99.90
16728;DHT22;8482;54.396;18.590;2023-04-19T12:33:36;9.90;99.90
16728;DHT22;8482;54.396;18.590;2023-04-19T12:36:02;9.90;99.90
16728;DHT22;8482;54.396;18.590;2023-04-19T12:38:27;10.00;99.90
16728;DHT22;8482;54.396;18.590;2023-04-19T12:40:53;10.10;99.90
16728;DHT22;8482;54.396;18.590;2023-04-19T12:43:20;10.20;99.90
16728;DHT22;8482;54.396;18.590;2023-04-19T12:45:45;10.20;99.90
16728;DHT22;8482;54.396;18.590;2023-04-19T12:48:11;10.30;99.90
16728;DHT22;8482;54.396;18.590;2023-04-19T12:50:37;10.50;99.90
16728;DHT22;8482;54.396;18.590;2023-04-19T12:53:03;10.60;99.90
16728;DHT22;8482;54.396;18.590;2023-04-19T12:55:31;10.70;99.90
16728;DHT22;8482;54.396;18.590;2023-04-19T12:57:56;10.80;99.90
16728;DHT22;8482;54.396;18.590;2023-04-19T13:00:22;10.80;99.90
16728;DHT22;8482;54.396;18.590;2023-04-19T13:02:49;10.90;99.90
16728;DHT22;8482;54.396;18.590;2023-04-19T13:05:15;11.10;99.90
16728;DHT22;8482;54.396;18.590;2023-04-19T13:07:40;11.20;99.90
16728;DHT22;8482;54.396;18.590;2023-04-19T13:10:07;11.30;99.90
16728;DHT22;8482;54.396;18.590;2023-04-19T13:12:33;11.40;99.90
16728;DHT22;8482;54.396;18.590;2023-04-19T13:15:00;11.40;99.90
16728;DHT22;8482;54.396;18.590;2023-04-19T13:17:26;11.40;99.90
16728;DHT22;8482;54.396;18.590;2023-04-19T13:19:52;11.40;99.90
16728;DHT22;8482;54.396;18.590;2023-04-19T13:22:19;11.40;99.90
16728;DHT22;8482;54.396;18.590;2023-04-19T13:24:45;11.40;99.90
16728;DHT22;8482;54.396;18.590;2023-04-19T13:27:11;11.30;99.90
16728;DHT22;8482;54.396;18.590;2023-04-19T13:29:37;11.30;99.90
16728;DHT22;8482;54.396;18.590;2023-04-19T13:32:03;11.30;99.90
16728;DHT22;8482;54.396;18.590;2023-04-19T13:34:37;11.30;99.90
16728;DHT22;8482;54.396;18.590;2023-04-19T13:37:05;11.20;99.90
16728;DHT22;8482;54.396;18.590;2023-04-19T13:39:32;11.20;99.90
16728;DHT22;8482;54.396;18.590;2023-04-19T13:41:59;11.20;99.90
16728;DHT22;8482;54.396;18.590;2023-04-19T13:44:26;11.20;99.90
16728;DHT22;8482;54.396;18.590;2023-04-19T13:46:53;11.20;99.90
16728;DHT22;8482;54.396;18.590;2023-04-19T13:49:19;11.20;99.90
16728;DHT22;8482;54.396;18.590;2023-04-19T13:51:45;11.20;99.90
16728;DHT22;8482;54.396;18.590;2023-04-19T13:54:11;11.20;99.90
16728;DHT22;8482;54.396;18.590;2023-04-19T13:56:37;11.20;99.90
16728;DHT22;8482;54.396;18.590;2023-04-19T13:59:03;11.30;99.90
16728;DHT22;8482;54.396;18.590;2023-04-19T14:01:28;11.70;99.90
16728;DHT22;8482;54.396;18.590;2023-04-19T14:03:54;12.30;99.90
16728;DHT22;8482;54.396;18.590;2023-04-19T14:06:20;13.50;99.90
16728;DHT22;8482;54.396;18.590;2023-04-19T14:08:46;15.10;99.90
16728;DHT22;8482;54.396;18.590;2023-04-19T14:11:12;16.90;99.90
16728;DHT22;8482;54.396;18.590;2023-04-19T14:13:38;18.90;96.90
16728;DHT22;8482;54.396;18.590;2023-04-19T14:16:03;21.40;90.40
16728;DHT22;8482;54.396;18.590;2023-04-19T14:18:30;23.70;76.50
16728;DHT22;8482;54.396;18.590;2023-04-19T14:20:55;25.90;66.60
16728;DHT22;8482;54.396;18.590;2023-04-19T14:23:21;28.10;60.40
16728;DHT22;8482;54.396;18.590;2023-04-19T14:25:47;29.80;56.50
16728;DHT22;8482;54.396;18.590;2023-04-19T14:28:13;31.20;52.10
16728;DHT22;8482;54.396;18.590;2023-04-19T14:30:39;32.30;49.30
16728;DHT22;8482;54.396;18.590;2023-04-19T14:33:05;33.40;47.20
16728;DHT22;8482;54.396;18.590;2023-04-19T14:35:31;34.10;46.10
16728;DHT22;8482;54.396;18.590;2023-04-19T14:37:56;34.80;44.90
16728;DHT22;8482;54.396;18.590;2023-04-19T14:40:22;35.30;43.60
16728;DHT22;8482;54.396;18.590;2023-04-19T14:42:48;35.80;42.70
16728;DHT22;8482;54.396;18.590;2023-04-19T14:45:14;35.90;41.80
16728;DHT22;8482;54.396;18.590;2023-04-19T14:47:40;36.20;41.50
16728;DHT22;8482;54.396;18.590;2023-04-19T14:50:06;36.60;41.10
16728;DHT22;8482;54.396;18.590;2023-04-19T14:52:32;37.00;40.50
16728;DHT22;8482;54.396;18.590;2023-04-19T14:54:58;37.30;39.50
16728;DHT22;8482;54.396;18.590;2023-04-19T14:57:26;37.40;39.10
16728;DHT22;8482;54.396;18.590;2023-04-19T14:59:56;36.80;39.30
16728;DHT22;8482;54.396;18.590;2023-04-19T15:02:23;36.60;39.10
16728;DHT22;8482;54.396;18.590;2023-04-19T15:04:49;36.40;39.00
16728;DHT22;8482;54.396;18.590;2023-04-19T15:07:15;36.40;39.20
16728;DHT22;8482;54.396;18.590;2023-04-19T15:09:41;35.70;39.00
16728;DHT22;8482;54.396;18.590;2023-04-19T15:12:07;34.80;39.90
16728;DHT22;8482;54.396;18.590;2023-04-19T15:14:33;34.30;40.50
16728;DHT22;8482;54.396;18.590;2023-04-19T15:16:59;33.00;41.40
16728;DHT22;8482;54.396;18.590;2023-04-19T15:19:25;31.50;42.30
16728;DHT22;8482;54.396;18.590;2023-04-19T15:21:51;29.90;44.10
16728;DHT22;8482;54.396;18.590;2023-04-19T15:24:17;28.70;45.20
16728;DHT22;8482;54.396;18.590;2023-04-19T15:26:42;27.90;47.10
16728;DHT22;8482;54.396;18.590;2023-04-19T15:29:08;28.20;47.70
16728;DHT22;8482;54.396;18.590;2023-04-19T15:31:34;28.90;47.00
16728;DHT22;8482;54.396;18.590;2023-04-19T15:34:01;29.80;45.90
16728;DHT22;8482;54.396;18.590;2023-04-19T15:36:27;30.60;45.00
16728;DHT22;8482;54.396;18.590;2023-04-19T15:38:54;31.30;44.40
16728;DHT22;8482;54.396;18.590;2023-04-19T15:41:20;31.70;43.20
16728;DHT22;8482;54.396;18.590;2023-04-19T15:43:46;32.10;43.00
16728;DHT22;8482;54.396;18.590;2023-04-19T15:46:12;32.10;42.40
16728;DHT22;8482;54.396;18.590;2023-04-19T15:48:38;31.70;43.00
16728;DHT22;8482;54.396;18.590;2023-04-19T15:51:04;31.70;43.00